Nevins, Indiana
Current Conditions -  °F | °C
As of 12:53 PM on Friday 28 Nov 2014 (Local Time) from KHUF Reporting Station
Clear Clear  
Wind Chill: 24°   Ceiling: Unl
Heat Index: 34°   Visibility: 10mi
Dew Point: 25°   Wind: 15mph
Humidity: 70%   Direction: 170°S
Pressure: 30.22"   Gusts: 21mph
Location:  39.5772°N, 87.241°W
Report Text: KHUF 281753Z 17013G18KT 10SM CLR 01/M04 A3022 RMK AO2 PRESFR SLP240 T00111039 10011 21056 58045
Loading
Personal Weather Stations






























Interactive Weather Map New forecast layout! Learn more

10-Day Weather Forecast

Advertisements
Track Severe Weather on mobile